Brunswick, North Carolina
Current Conditions -  °F | °C
As of 8:15 AM on Thursday 27 Nov 2014 (Local Time) from KCPC Reporting Station
Clear Clear  
Wind Chill: 41°   Ceiling: Unl
Heat Index: 46°   Visibility: 10mi
Dew Point: 38°   Wind: 9mph
Humidity: 73%   Direction: 230°SW
Pressure: 30.04"   Gusts: NA
Location:  34.29°N, 78.7°W
Report Text: KCPC 271315Z AUTO 23008KT 10SM CLR 08/03 A3004 RMK AO2 T00770031
Loading
Personal Weather Stations






























Interactive Weather Map New forecast layout! Learn more

10-Day Weather Forecast

Advertisements
Track Severe Weather on mobile